Time;durP1;ratioP1;P1;durP2;ratioP2;P2;SDS_P1;SDS_P2;PMS_P1;PMS_P2;Temp;Humidity;BMP_temperature;BMP_pressure;BME280_temperature;BME280_humidity;BME280_pressure;Samples;Min_cycle;Max_cycle;Signal;HPM_P1;HPM_P2
2021/12/20 00:01:42;;;;;;;16.05;3.60;;;6.60;99.90;;;;;;5130084;28;20126;-80
2021/12/20 00:04:07;;;;;;;25.02;4.15;;;6.60;99.90;;;;;;5128940;28;20054;-80
2021/12/20 00:06:33;;;;;;;21.77;4.00;;;6.60;99.90;;;;;;5131360;28;20042;-80
2021/12/20 00:08:58;;;;;;;19.10;3.50;;;6.60;99.90;;;;;;5130947;28;20042;-81
2021/12/20 00:11:24;;;;;;;16.80;3.28;;;6.60;99.90;;;;;;5129289;27;20118;-80
2021/12/20 00:13:49;;;;;;;16.48;2.83;;;6.60;99.90;;;;;;5132033;27;20035;-80
2021/12/20 00:16:15;;;;;;;15.50;2.72;;;6.60;99.90;;;;;;5134483;27;20054;-80
2021/12/20 00:18:42;;;;;;;22.42;3.38;;;6.60;99.90;;;;;;5135209;27;20055;-80
2021/12/20 00:21:08;;;;;;;20.77;3.30;;;6.60;99.90;;;;;;5134117;27;20113;-80
2021/12/20 00:23:34;;;;;;;23.98;3.83;;;6.60;99.90;;;;;;5131091;27;20043;-80
2021/12/20 00:25:59;;;;;;;16.35;3.60;;;6.50;99.90;;;;;;5132607;27;20050;-80
2021/12/20 00:28:25;;;;;;;26.17;4.03;;;6.50;99.90;;;;;;5135047;27;20070;-80
2021/12/20 00:30:51;;;;;;;11.45;2.20;;;6.50;99.90;;;;;;5130272;27;20542;-81
2021/12/20 00:33:16;;;;;;;19.40;3.67;;;6.50;99.90;;;;;;5129521;27;20456;-80
2021/12/20 00:35:42;;;;;;;26.15;4.57;;;6.50;99.90;;;;;;5133595;27;20050;-80
2021/12/20 00:40:52;;;;;;;19.85;3.35;;;6.50;99.90;;;;;;5133276;27;20415;-80
2021/12/20 00:43:18;;;;;;;21.60;2.80;;;6.50;99.90;;;;;;5133470;27;20085;-80
2021/12/20 00:45:44;;;;;;;20.58;3.05;;;6.50;99.90;;;;;;5131564;27;20051;-80
2021/12/20 00:48:09;;;;;;;20.95;3.63;;;6.50;99.90;;;;;;5133537;27;20050;-80
2021/12/20 00:50:35;;;;;;;19.10;2.72;;;6.50;99.90;;;;;;5133224;27;20094;-80
2021/12/20 00:53:02;;;;;;;19.38;2.97;;;6.50;99.90;;;;;;5133583;27;20089;-80
2021/12/20 00:55:28;;;;;;;27.02;3.65;;;6.50;99.90;;;;;;5132394;27;20103;-81
2021/12/20 00:57:56;;;;;;;15.55;3.85;;;6.50;99.90;;;;;;5131502;27;20093;-80
2021/12/20 01:00:34;;;;;;;20.85;3.30;;;6.50;99.90;;;;;;5132550;27;20047;-80
2021/12/20 01:03:02;;;;;;;15.98;2.72;;;6.50;99.90;;;;;;5132202;27;20116;-80
2021/12/20 01:05:28;;;;;;;19.52;2.83;;;6.40;99.90;;;;;;5132930;27;20050;-81
2021/12/20 01:07:57;;;;;;;18.50;3.45;;;6.40;99.90;;;;;;5132093;27;20538;-80
2021/12/20 01:10:24;;;;;;;16.30;2.33;;;6.40;99.90;;;;;;5133801;27;20043;-80
2021/12/20 01:12:51;;;;;;;11.43;2.17;;;6.40;99.90;;;;;;5132625;27;20481;-80
2021/12/20 01:15:29;;;;;;;21.83;3.33;;;6.40;99.90;;;;;;5133893;27;20039;-80
2021/12/20 01:17:55;;;;;;;21.92;2.97;;;6.30;99.90;;;;;;5130875;27;20117;-80
2021/12/20 01:20:21;;;;;;;23.90;3.20;;;6.30;99.90;;;;;;5133067;27;20123;-80
2021/12/20 01:22:49;;;;;;;22.48;4.30;;;6.30;99.90;;;;;;5119605;27;20084;-80
2021/12/20 01:25:16;;;;;;;23.67;3.70;;;6.30;99.90;;;;;;5127443;27;20121;-80
2021/12/20 01:27:42;;;;;;;25.05;3.05;;;6.30;99.90;;;;;;5131951;27;20051;-80
2021/12/20 01:30:10;;;;;;;17.80;3.42;;;6.30;99.90;;;;;;5131642;27;20046;-80
2021/12/20 01:32:36;;;;;;;28.98;3.45;;;6.30;99.90;;;;;;5132445;27;20068;-80
2021/12/20 01:35:02;;;;;;;16.15;3.15;;;6.30;99.90;;;;;;5128505;27;20035;-80
2021/12/20 01:37:28;;;;;;;17.15;2.42;;;6.20;99.90;;;;;;5118867;27;20401;-80
2021/12/20 01:39:58;;;;;;;15.02;2.38;;;6.30;99.90;;;;;;5130325;27;20039;-80
2021/12/20 01:42:24;;;;;;;14.35;1.83;;;6.20;99.90;;;;;;5119796;27;20055;-80
2021/12/20 01:44:50;;;;;;;16.15;2.63;;;6.20;99.90;;;;;;5132045;27;20504;-80
2021/12/20 01:47:16;;;;;;;20.13;2.65;;;6.60;99.90;;;;;;5131721;27;20066;-80
2021/12/20 01:49:59;;;;;;;10.93;2.38;;;6.10;99.90;;;;;;5132124;27;20100;-80
2021/12/20 01:52:27;;;;;;;14.48;2.10;;;6.10;99.90;;;;;;5132778;27;20099;-80
2021/12/20 01:54:53;;;;;;;11.93;2.17;;;6.10;99.90;;;;;;5131654;27;20039;-80
2021/12/20 01:57:21;;;;;;;16.75;2.60;;;6.10;99.90;;;;;;5131672;27;20035;-80
2021/12/20 01:59:47;;;;;;;17.63;2.33;;;6.20;99.90;;;;;;5132577;27;20043;-80
2021/12/20 02:02:13;;;;;;;15.65;2.05;;;6.00;99.90;;;;;;5132009;27;20474;-80
2021/12/20 02:04:46;;;;;;;12.00;1.65;;;6.00;99.90;;;;;;5130859;27;20051;-80
2021/12/20 02:07:30;;;;;;;11.80;1.77;;;6.10;99.90;;;;;;5133628;27;20042;-80
2021/12/20 02:09:56;;;;;;;9.40;1.75;;;6.00;99.90;;;;;;5128385;27;20048;-80
2021/12/20 02:12:22;;;;;;;16.15;2.03;;;6.00;99.90;;;;;;5131703;27;20103;-80
2021/12/20 02:14:47;;;;;;;10.40;1.60;;;6.00;99.90;;;;;;5131170;27;20051;-80
2021/12/20 02:17:14;;;;;;;13.75;1.73;;;6.00;99.90;;;;;;5131273;27;20058;-80
2021/12/20 02:19:40;;;;;;;13.38;1.75;;;6.00;99.90;;;;;;5130541;27;20039;-80
2021/12/20 02:22:06;;;;;;;14.38;2.78;;;6.00;99.90;;;;;;5121318;27;20402;-80
2021/12/20 02:24:32;;;;;;;20.45;2.28;;;6.00;99.90;;;;;;5123957;27;20067;-80
2021/12/20 02:26:57;;;;;;;9.80;1.92;;;6.00;99.90;;;;;;5132238;27;20843;-80
2021/12/20 02:29:39;;;;;;;9.73;1.33;;;6.00;99.90;;;;;;5130306;27;20087;-80
2021/12/20 02:37:33;;;;;;;7.47;1.73;;;5.90;99.90;;;;;;5130444;27;19923;-80
2021/12/20 02:39:59;;;;;;;14.57;1.65;;;5.90;99.90;;;;;;5130360;27;20051;-80
2021/12/20 02:42:31;;;;;;;11.52;2.03;;;5.80;99.90;;;;;;5131575;27;20035;-80
2021/12/20 02:45:16;;;;;;;14.63;2.17;;;5.80;99.90;;;;;;5129919;27;20093;-80
2021/12/20 02:47:47;;;;;;;10.02;1.63;;;5.70;99.90;;;;;;5130372;27;20095;-80
2021/12/20 02:50:14;;;;;;;11.35;1.52;;;5.70;99.90;;;;;;5128841;27;20051;-80
2021/12/20 02:52:40;;;;;;;8.98;1.40;;;5.70;99.90;;;;;;5130656;27;20043;-80
2021/12/20 02:55:08;;;;;;;8.00;1.38;;;5.60;99.90;;;;;;5127840;27;20074;-80
2021/12/20 02:57:38;;;;;;;10.15;1.38;;;5.50;99.90;;;;;;5129944;27;20054;-80
2021/12/20 03:00:09;;;;;;;11.82;1.42;;;5.50;99.90;;;;;;5114878;27;20042;-80
2021/12/20 03:02:35;;;;;;;15.27;1.45;;;5.40;99.90;;;;;;5132552;27;20043;-80
2021/12/20 03:05:02;;;;;;;11.30;1.52;;;5.40;99.90;;;;;;5130842;27;20035;-80
2021/12/20 03:07:28;;;;;;;10.15;2.20;;;5.40;99.90;;;;;;5130391;27;20508;-80
2021/12/20 03:10:01;;;;;;;8.30;1.40;;;5.30;99.90;;;;;;5130202;27;20043;-80
2021/12/20 03:12:29;;;;;;;13.77;1.80;;;5.20;99.90;;;;;;5131273;27;20075;-80
2021/12/20 03:15:02;;;;;;;9.45;1.25;;;5.20;99.90;;;;;;5130803;27;20050;-80
2021/12/20 03:17:28;;;;;;;13.80;1.67;;;5.10;99.90;;;;;;5130698;27;20092;-80
2021/12/20 03:19:54;;;;;;;10.18;1.60;;;5.10;99.90;;;;;;5129328;27;20051;-80
2021/12/20 03:22:19;;;;;;;11.35;1.70;;;5.10;99.90;;;;;;5131621;27;20042;-80
2021/12/20 03:24:45;;;;;;;11.43;1.33;;;5.00;99.90;;;;;;5132338;27;20054;-80
2021/12/20 03:27:10;;;;;;;10.70;1.70;;;5.00;99.90;;;;;;5129152;27;20076;-80
2021/12/20 03:29:36;;;;;;;9.57;1.35;;;5.00;99.90;;;;;;5131090;27;20070;-80
2021/12/20 03:32:02;;;;;;;6.75;1.27;;;5.00;99.90;;;;;;5127052;27;20048;-80
2021/12/20 03:34:27;;;;;;;9.48;1.35;;;4.90;99.90;;;;;;5129481;27;20421;-80
2021/12/20 03:36:53;;;;;;;22.40;1.80;;;5.10;99.90;;;;;;5129819;27;20047;-80
2021/12/20 03:39:19;;;;;;;10.05;1.60;;;4.90;99.90;;;;;;5126553;27;20473;-80
2021/12/20 03:41:44;;;;;;;9.50;1.30;;;4.90;99.90;;;;;;5120023;27;20057;-80
2021/12/20 03:44:11;;;;;;;16.88;1.90;;;4.80;99.90;;;;;;5131534;28;20041;-80
2021/12/20 03:46:37;;;;;;;9.75;1.80;;;4.80;99.90;;;;;;5130309;27;20161;-80
2021/12/20 03:49:04;;;;;;;12.98;1.50;;;4.80;99.90;;;;;;5129287;27;20108;-79
2021/12/20 03:51:30;;;;;;;9.60;1.27;;;4.70;99.90;;;;;;5146451;27;20054;-80
2021/12/20 03:53:55;;;;;;;6.95;1.48;;;4.70;99.90;;;;;;5133873;27;20399;-79
2021/12/20 03:56:21;;;;;;;12.90;1.40;;;4.60;99.90;;;;;;5132991;27;20087;-80
2021/12/20 03:58:47;;;;;;;11.70;1.67;;;4.60;99.90;;;;;;5129744;28;20032;-80
2021/12/20 04:01:13;;;;;;;8.70;1.20;;;4.60;99.90;;;;;;5123987;27;20538;-79
2021/12/20 04:03:40;;;;;;;7.50;1.35;;;4.50;99.90;;;;;;5150781;27;20038;-79
2021/12/20 04:06:09;;;;;;;10.77;1.95;;;4.50;99.90;;;;;;5151467;27;20126;-79
2021/12/20 04:08:35;;;;;;;8.93;1.10;;;4.50;99.90;;;;;;5151945;27;20465;-80
2021/12/20 04:11:01;;;;;;;10.15;1.77;;;4.40;99.90;;;;;;5133387;27;20046;-80
2021/12/20 04:13:27;;;;;;;8.48;1.27;;;4.40;99.90;;;;;;5152111;27;20050;-79
2021/12/20 04:15:56;;;;;;;12.48;1.40;;;4.40;99.90;;;;;;5152808;27;20443;-79
2021/12/20 04:18:23;;;;;;;9.50;1.42;;;4.30;99.90;;;;;;5132702;27;20462;-79
2021/12/20 04:20:48;;;;;;;10.20;1.50;;;4.30;99.90;;;;;;5131261;27;20035;-79
2021/12/20 04:23:14;;;;;;;9.25;1.58;;;4.20;99.90;;;;;;5133136;27;20119;-79
2021/12/20 04:25:40;;;;;;;6.53;1.40;;;4.20;99.90;;;;;;5132734;27;20049;-80
2021/12/20 04:28:05;;;;;;;11.75;1.50;;;4.20;99.90;;;;;;5151081;27;20108;-80
2021/12/20 04:30:33;;;;;;;9.57;1.30;;;4.20;99.90;;;;;;5149298;27;20050;-80
2021/12/20 04:33:00;;;;;;;10.32;1.75;;;4.10;99.90;;;;;;5151311;27;20064;-80
2021/12/20 04:35:26;;;;;;;6.22;1.13;;;4.10;99.90;;;;;;5152604;27;20050;-79
2021/12/20 04:37:53;;;;;;;10.43;1.27;;;4.00;99.90;;;;;;5151024;27;20538;-79
2021/12/20 04:40:21;;;;;;;8.98;1.30;;;4.00;99.90;;;;;;5132921;27;20503;-79
2021/12/20 04:42:49;;;;;;;10.50;2.17;;;4.00;99.90;;;;;;5131488;27;20091;-79
2021/12/20 04:45:15;;;;;;;4.85;1.05;;;4.00;99.90;;;;;;5151705;27;20046;-79
2021/12/20 04:47:40;;;;;;;7.35;1.08;;;4.00;99.90;;;;;;5151575;27;20031;-79
2021/12/20 04:50:07;;;;;;;8.85;1.13;;;4.00;99.90;;;;;;5151255;27;20054;-79
2021/12/20 04:52:32;;;;;;;10.57;1.45;;;4.00;99.90;;;;;;5150924;27;20141;-80
2021/12/20 04:54:58;;;;;;;5.60;1.25;;;4.00;99.90;;;;;;5132259;27;20183;-79
2021/12/20 04:57:23;;;;;;;10.13;1.33;;;4.00;99.90;;;;;;5132828;27;20082;-79
2021/12/20 04:59:49;;;;;;;11.93;1.20;;;3.90;99.90;;;;;;5154843;27;20117;-79
2021/12/20 05:02:15;;;;;;;11.70;1.50;;;3.90;99.90;;;;;;5135612;27;20042;-79
2021/12/20 05:04:42;;;;;;;10.65;1.30;;;3.90;99.90;;;;;;5155412;27;20133;-80
2021/12/20 05:07:07;;;;;;;8.30;1.27;;;3.80;99.90;;;;;;5135673;27;20039;-79
2021/12/20 05:09:38;;;;;;;6.10;1.42;;;3.80;99.90;;;;;;5135901;27;20069;-79
2021/12/20 05:12:11;;;;;;;7.88;1.17;;;3.70;99.90;;;;;;5136047;27;20050;-79
2021/12/20 05:14:40;;;;;;;8.48;1.63;;;3.70;99.90;;;;;;5132815;27;20043;-80
2021/12/20 05:17:06;;;;;;;10.35;1.52;;;3.70;99.90;;;;;;5133420;27;20049;-79
2021/12/20 05:19:31;;;;;;;9.45;1.30;;;3.70;99.90;;;;;;5152901;27;20042;-79
2021/12/20 05:21:57;;;;;;;7.60;1.73;;;3.60;99.90;;;;;;5151544;27;20050;-79
2021/12/20 05:24:22;;;;;;;8.07;1.02;;;3.60;99.90;;;;;;5136702;27;20046;-80
2021/12/20 05:26:48;;;;;;;9.50;1.30;;;3.60;99.90;;;;;;5128722;27;20062;-79
2021/12/20 05:29:13;;;;;;;9.82;1.30;;;3.60;99.90;;;;;;5136504;27;20375;-79
2021/12/20 05:31:39;;;;;;;9.43;1.95;;;3.50;99.90;;;;;;5135605;27;20554;-79
2021/12/20 05:34:05;;;;;;;12.27;1.60;;;3.50;99.90;;;;;;5152799;27;20435;-79
2021/12/20 05:36:31;;;;;;;7.90;1.33;;;3.50;99.90;;;;;;5135000;27;20149;-79
2021/12/20 05:38:56;;;;;;;9.85;2.20;;;3.50;99.90;;;;;;5135298;27;20422;-79
2021/12/20 05:41:22;;;;;;;7.75;1.15;;;3.40;99.90;;;;;;5130305;27;20043;-79
2021/12/20 05:43:48;;;;;;;9.85;1.48;;;3.40;99.90;;;;;;5152175;27;20374;-79
2021/12/20 05:46:14;;;;;;;7.03;1.10;;;3.40;99.90;;;;;;5131553;27;20181;-79
2021/12/20 05:48:39;;;;;;;8.27;1.75;;;3.40;99.90;;;;;;5134000;27;20039;-79
2021/12/20 05:51:05;;;;;;;10.40;2.00;;;3.40;99.90;;;;;;5122989;27;20101;-79
2021/12/20 05:53:31;;;;;;;8.70;1.35;;;3.50;99.90;;;;;;5131996;27;20049;-79
2021/12/20 05:55:56;;;;;;;12.02;1.52;;;3.50;99.90;;;;;;5128826;27;20031;-79
2021/12/20 05:58:22;;;;;;;7.00;1.65;;;3.50;99.90;;;;;;5154700;27;20038;-79
2021/12/20 06:00:47;;;;;;;9.18;1.45;;;3.50;99.90;;;;;;5134787;27;20165;-79
2021/12/20 06:03:13;;;;;;;13.98;1.42;;;3.40;99.90;;;;;;5148109;27;20085;-79
2021/12/20 06:05:41;;;;;;;8.52;2.17;;;3.40;99.90;;;;;;5135339;27;20042;-79
2021/12/20 06:08:08;;;;;;;6.18;1.20;;;3.40;99.90;;;;;;5132972;27;20394;-79
2021/12/20 06:10:34;;;;;;;7.70;1.42;;;3.40;99.90;;;;;;5131723;27;20099;-79
2021/12/20 06:12:59;;;;;;;7.38;1.45;;;3.40;99.90;;;;;;5133141;27;20460;-78
2021/12/20 06:15:25;;;;;;;10.10;1.73;;;3.30;99.90;;;;;;5133591;27;20134;-79
2021/12/20 06:17:50;;;;;;;5.35;1.15;;;3.30;99.90;;;;;;5134755;27;20385;-79
2021/12/20 06:20:16;;;;;;;7.45;1.10;;;3.20;99.90;;;;;;5134386;27;20046;-79
2021/12/20 06:22:42;;;;;;;5.43;1.13;;;3.20;99.90;;;;;;5134465;27;20043;-79
2021/12/20 06:25:08;;;;;;;9.43;2.20;;;3.10;99.90;;;;;;5133213;27;20068;-77
2021/12/20 06:27:34;;;;;;;9.18;2.35;;;3.20;99.90;;;;;;5133647;27;20042;-77
2021/12/20 06:29:59;;;;;;;8.10;1.30;;;3.20;99.90;;;;;;5132615;27;20129;-77
2021/12/20 06:32:25;;;;;;;10.02;1.70;;;3.20;99.90;;;;;;5131244;27;20451;-77
2021/12/20 06:34:50;;;;;;;10.05;1.73;;;3.20;99.90;;;;;;5124367;27;20070;-77
2021/12/20 06:37:16;;;;;;;8.82;1.88;;;3.20;99.90;;;;;;5127267;27;20043;-78
2021/12/20 06:39:42;;;;;;;14.57;2.70;;;3.10;99.90;;;;;;5151013;27;20046;-77
2021/12/20 06:42:08;;;;;;;11.00;2.85;;;3.10;99.90;;;;;;5121438;27;20219;-77
2021/12/20 06:44:33;;;;;;;11.65;1.70;;;3.20;99.90;;;;;;5133525;27;20081;-73
2021/12/20 06:46:59;;;;;;;11.77;3.03;;;3.00;99.90;;;;;;5129004;27;20163;-74
2021/12/20 06:49:25;;;;;;;9.98;1.60;;;3.00;99.90;;;;;;5147842;27;20371;-74
2021/12/20 06:51:53;;;;;;;9.52;1.65;;;3.00;99.90;;;;;;5132090;27;20044;-75
2021/12/20 06:54:19;;;;;;;10.25;1.60;;;3.00;99.90;;;;;;5139680;27;20127;-75
2021/12/20 06:56:46;;;;;;;10.82;2.15;;;2.90;99.90;;;;;;5152866;27;20046;-74
2021/12/20 06:59:12;;;;;;;12.10;1.70;;;2.90;99.90;;;;;;5134863;27;20043;-74
2021/12/20 07:01:38;;;;;;;13.55;1.88;;;2.80;99.90;;;;;;5136997;27;20046;-74
2021/12/20 07:04:04;;;;;;;15.10;2.20;;;2.90;99.90;;;;;;5147113;27;20058;-75
2021/12/20 07:06:30;;;;;;;6.38;1.55;;;2.80;99.90;;;;;;5150495;27;20037;-75
2021/12/20 07:08:56;;;;;;;7.43;1.75;;;2.80;99.90;;;;;;5134091;27;20099;-75
2021/12/20 07:11:22;;;;;;;7.70;1.50;;;2.80;99.90;;;;;;5125560;27;20580;-75
2021/12/20 07:13:49;;;;;;;7.88;1.83;;;2.80;99.90;;;;;;5128331;27;20620;-76
2021/12/20 07:16:15;;;;;;;10.07;1.83;;;2.80;99.90;;;;;;5139023;27;20039;-76
2021/12/20 07:18:41;;;;;;;12.32;2.00;;;2.80;99.90;;;;;;5131578;27;20031;-76
2021/12/20 07:21:06;;;;;;;16.67;1.95;;;2.80;99.90;;;;;;5137312;27;20100;-76
2021/12/20 07:23:34;;;;;;;6.82;1.17;;;2.80;99.90;;;;;;5127410;27;20054;-76
2021/12/20 07:26:00;;;;;;;9.07;2.33;;;2.70;99.90;;;;;;5131366;27;20047;-76
2021/12/20 07:28:26;;;;;;;9.90;1.58;;;2.70;99.90;;;;;;5133769;27;20134;-78
2021/12/20 07:30:52;;;;;;;11.18;2.30;;;2.70;99.90;;;;;;5132712;27;20129;-75
2021/12/20 07:33:17;;;;;;;13.80;1.90;;;2.70;99.90;;;;;;5151445;27;20550;-75
2021/12/20 07:35:44;;;;;;;7.90;2.25;;;2.70;99.90;;;;;;5109902;27;20416;-75
2021/12/20 07:38:14;;;;;;;9.50;1.92;;;2.70;99.90;;;;;;5130927;27;20034;-76
2021/12/20 07:40:48;;;;;;;9.20;2.00;;;2.60;99.90;;;;;;5128864;27;20047;-75
2021/12/20 07:43:16;;;;;;;9.85;3.33;;;2.50;99.90;;;;;;5108709;27;20612;-75
2021/12/20 07:45:44;;;;;;;13.27;2.00;;;2.50;99.90;;;;;;5095568;27;20059;-75
2021/12/20 07:48:10;;;;;;;9.63;2.13;;;2.50;99.90;;;;;;5125952;27;20050;-75
2021/12/20 07:50:35;;;;;;;10.63;2.00;;;2.50;99.90;;;;;;5111604;27;20536;-75
2021/12/20 07:53:01;;;;;;;8.38;1.73;;;2.40;99.90;;;;;;5125120;27;20245;-74
2021/12/20 07:55:27;;;;;;;16.85;2.58;;;2.50;99.90;;;;;;5097278;27;20139;-75
2021/12/20 07:57:52;;;;;;;13.70;2.40;;;2.50;99.90;;;;;;5110332;27;20043;-75
2021/12/20 08:00:18;;;;;;;8.38;1.63;;;2.50;99.90;;;;;;5123060;27;20469;-75
2021/12/20 08:02:44;;;;;;;13.82;2.33;;;2.50;99.90;;;;;;5135226;27;20409;-75
2021/12/20 08:05:12;;;;;;;14.40;3.03;;;2.50;99.90;;;;;;5104544;27;20184;-74
2021/12/20 08:07:38;;;;;;;10.68;1.95;;;2.50;99.90;;;;;;5133299;27;20850;-75
2021/12/20 08:10:04;;;;;;;15.15;3.15;;;2.50;99.90;;;;;;5111648;27;20098;-75
2021/12/20 08:12:30;;;;;;;15.68;3.03;;;2.50;99.90;;;;;;5107810;27;20059;-75
2021/12/20 08:14:55;;;;;;;7.93;2.13;;;2.50;99.90;;;;;;5096964;27;20049;-73
2021/12/20 08:17:21;;;;;;;13.13;2.80;;;2.50;99.90;;;;;;5112581;27;20075;-74
2021/12/20 08:19:46;;;;;;;12.48;2.42;;;2.40;99.90;;;;;;5107437;27;20043;-74
2021/12/20 08:22:12;;;;;;;18.50;3.22;;;2.40;99.90;;;;;;5130907;27;20051;-74
2021/12/20 08:24:37;;;;;;;9.68;2.65;;;2.40;99.90;;;;;;5105696;27;20138;-74
2021/12/20 08:27:03;;;;;;;21.08;2.90;;;2.40;99.90;;;;;;5119604;27;20082;-74
2021/12/20 08:29:29;;;;;;;11.35;2.10;;;2.40;99.90;;;;;;5114048;27;20046;-74
2021/12/20 08:31:56;;;;;;;14.57;2.20;;;2.40;99.90;;;;;;5127544;27;20091;-74
2021/12/20 08:34:21;;;;;;;15.48;3.28;;;2.40;99.90;;;;;;5104400;27;20049;-74
2021/12/20 08:36:47;;;;;;;11.52;2.38;;;2.40;99.90;;;;;;5123668;27;20047;-74
2021/12/20 08:39:17;;;;;;;12.60;3.35;;;2.40;99.90;;;;;;5114849;27;20051;-74
2021/12/20 08:41:43;;;;;;;10.70;2.35;;;2.30;99.90;;;;;;5107458;27;20047;-74
2021/12/20 08:44:09;;;;;;;12.63;2.72;;;2.30;99.90;;;;;;5127564;27;20524;-74
2021/12/20 08:46:34;;;;;;;13.25;2.85;;;2.30;99.90;;;;;;5122412;27;20031;-74
2021/12/20 08:49:00;;;;;;;20.85;3.25;;;2.30;99.90;;;;;;5124562;27;20064;-74
2021/12/20 08:51:26;;;;;;;10.63;2.78;;;2.30;99.90;;;;;;5125559;27;20430;-74
2021/12/20 08:53:51;;;;;;;20.48;4.80;;;2.30;99.90;;;;;;5103005;27;20039;-74
2021/12/20 08:56:18;;;;;;;17.17;3.17;;;2.30;99.90;;;;;;5103186;27;20531;-74
2021/12/20 08:58:45;;;;;;;18.30;4.90;;;2.30;99.90;;;;;;5111091;27;20441;-74
2021/12/20 09:01:12;;;;;;;10.82;3.70;;;2.30;99.90;;;;;;5108252;27;20161;-74
2021/12/20 09:03:38;;;;;;;29.90;5.88;;;2.30;99.90;;;;;;5128754;27;20138;-74
2021/12/20 09:06:04;;;;;;;25.60;4.78;;;2.30;99.90;;;;;;5098828;27;20440;-74
2021/12/20 09:08:30;;;;;;;60.83;9.10;;;2.30;99.90;;;;;;5126342;27;20047;-74
2021/12/20 09:10:56;;;;;;;67.20;11.60;;;2.30;99.90;;;;;;5112263;27;20054;-74
2021/12/20 09:13:22;;;;;;;77.07;10.13;;;2.30;99.90;;;;;;5112314;27;20497;-74
2021/12/20 09:15:48;;;;;;;69.60;8.85;;;2.30;99.90;;;;;;5108168;27;20534;-74
2021/12/20 09:18:15;;;;;;;27.40;6.97;;;2.30;99.90;;;;;;5118681;27;20046;-74
2021/12/20 09:20:41;;;;;;;38.85;7.15;;;2.30;99.90;;;;;;5112516;27;20443;-75
2021/12/20 09:23:08;;;;;;;22.70;6.22;;;2.30;99.90;;;;;;5109118;27;20050;-74
2021/12/20 09:25:38;;;;;;;27.48;6.18;;;2.40;99.90;;;;;;5123218;27;20130;-74
2021/12/20 09:28:08;;;;;;;24.45;7.68;;;2.40;99.90;;;;;;5112284;27;20031;-74
2021/12/20 09:30:35;;;;;;;17.45;5.40;;;2.40;99.90;;;;;;5110768;27;20046;-74
2021/12/20 09:33:01;;;;;;;19.83;7.55;;;2.40;99.90;;;;;;5112901;27;20050;-74
2021/12/20 09:35:27;;;;;;;22.38;6.60;;;2.50;99.90;;;;;;5106392;27;20504;-74
2021/12/20 09:37:53;;;;;;;20.35;6.03;;;2.50;99.90;;;;;;5129599;27;20043;-74
2021/12/20 09:40:31;;;;;;;25.65;6.07;;;3.00;99.90;;;;;;5112723;27;20524;-73
2021/12/20 09:42:58;;;;;;;15.52;4.72;;;2.50;99.90;;;;;;5111617;27;20052;-73
2021/12/20 09:45:24;;;;;;;23.38;4.32;;;2.50;99.90;;;;;;5105183;27;20035;-74
2021/12/20 09:47:51;;;;;;;16.38;6.07;;;2.60;99.90;;;;;;5112952;27;20135;-74
2021/12/20 09:50:18;;;;;;;15.77;5.63;;;2.60;99.90;;;;;;5110441;27;20062;-74
2021/12/20 09:52:44;;;;;;;13.45;4.30;;;2.60;99.90;;;;;;5110847;27;20058;-74
2021/12/20 09:55:11;;;;;;;16.08;5.70;;;2.60;99.90;;;;;;5105556;27;20083;-74
2021/12/20 09:57:37;;;;;;;18.60;6.05;;;2.70;99.90;;;;;;5109010;27;20038;-74
2021/12/20 10:00:07;;;;;;;20.52;5.60;;;2.70;99.90;;;;;;5109994;27;20110;-74
2021/12/20 10:02:33;;;;;;;25.33;6.22;;;2.80;99.90;;;;;;5112463;27;20057;-79
2021/12/20 10:04:58;;;;;;;19.92;5.45;;;2.80;99.90;;;;;;5124767;27;20039;-81
2021/12/20 10:07:27;;;;;;;17.67;5.00;;;2.80;99.90;;;;;;5130008;27;20467;-78
2021/12/20 10:09:53;;;;;;;28.15;4.97;;;2.80;99.90;;;;;;5131188;27;20085;-78
2021/12/20 10:12:26;;;;;;;26.30;6.18;;;2.90;99.90;;;;;;5116608;27;20050;-75
2021/12/20 10:15:03;;;;;;;25.75;5.93;;;2.90;99.90;;;;;;5122319;27;20045;-78
2021/12/20 10:17:54;;;;;;;25.15;6.38;;;3.00;99.90;;;;;;5113850;27;20493;-80
2021/12/20 10:20:22;;;;;;;33.83;7.10;;;3.00;99.90;;;;;;5098391;27;20059;-79
2021/12/20 10:22:48;;;;;;;26.98;7.15;;;3.10;99.90;;;;;;5110386;27;20047;-79
2021/12/20 10:25:22;;;;;;;28.00;6.50;;;3.10;99.90;;;;;;5102515;27;20505;-79
2021/12/20 10:27:48;;;;;;;21.85;6.82;;;3.20;99.90;;;;;;5113103;27;21405;-79
2021/12/20 10:30:44;;;;;;;25.67;5.57;;;3.20;99.90;;;;;;5129631;27;20061;-80
2021/12/20 10:33:18;;;;;;;21.08;5.75;;;3.30;99.90;;;;;;5111033;27;20051;-80
2021/12/20 10:35:49;;;;;;;27.70;4.80;;;3.40;99.90;;;;;;5107336;27;20622;-80
2021/12/20 10:38:38;;;;;;;23.08;7.70;;;3.50;99.90;;;;;;5110738;27;20303;-79
2021/12/20 10:41:12;;;;;;;25.67;8.93;;;3.50;99.90;;;;;;5112267;27;20058;-79
2021/12/20 10:43:47;;;;;;;22.92;6.15;;;3.60;99.90;;;;;;5109745;27;20067;-78
2021/12/20 10:46:17;;;;;;;24.00;4.32;;;3.60;99.90;;;;;;5105462;27;20039;-77
2021/12/20 10:48:45;;;;;;;18.90;3.67;;;3.70;99.90;;;;;;5115150;27;20046;-77
2021/12/20 10:51:26;;;;;;;16.27;2.90;;;3.80;99.90;;;;;;5134379;27;20062;-76
2021/12/20 10:54:00;;;;;;;15.48;3.17;;;3.90;99.90;;;;;;5107204;27;20050;-76
2021/12/20 10:56:26;;;;;;;;;;;4.00;99.90;;;;;;5125913;27;20047;-76
2021/12/20 10:58:54;;;;;;;19.90;2.72;;;4.10;99.90;;;;;;5129722;27;20000;-77
2021/12/20 11:04:19;;;;;;;14.30;3.13;;;4.30;99.90;;;;;;5113548;27;20039;-78
2021/12/20 11:09:28;;;;;;;15.48;4.03;;;4.60;99.90;;;;;;5127046;27;20054;-79
2021/12/20 11:12:03;;;;;;;17.05;4.13;;;4.60;99.90;;;;;;5103295;27;20411;-79
2021/12/20 11:14:38;;;;;;;18.50;5.03;;;4.70;99.90;;;;;;5102917;27;20047;-79
2021/12/20 11:17:06;;;;;;;14.73;5.03;;;4.80;99.90;;;;;;5124605;27;20047;-79
2021/12/20 11:19:39;;;;;;;15.38;4.35;;;4.90;99.90;;;;;;5130162;27;20842;-79
2021/12/20 11:22:20;;;;;;;16.33;3.50;;;5.00;99.90;;;;;;5107940;27;20054;-79
2021/12/20 11:24:49;;;;;;;18.15;2.85;;;5.10;99.90;;;;;;5100345;27;20168;-79
2021/12/20 11:27:32;;;;;;;17.02;2.65;;;5.20;99.90;;;;;;5108836;27;20062;-80
2021/12/20 11:29:58;;;;;;;19.15;3.63;;;5.30;99.90;;;;;;5112470;27;20094;-80
2021/12/20 11:32:27;;;;;;;9.50;3.67;;;5.40;99.90;;;;;;5110857;27;20438;-79
2021/12/20 11:34:53;;;;;;;16.83;4.10;;;5.60;99.90;;;;;;5109042;27;20076;-80
2021/12/20 11:37:23;;;;;;;15.65;4.03;;;5.70;99.90;;;;;;5108831;27;20619;-79
2021/12/20 11:39:50;;;;;;;16.73;4.13;;;5.80;99.90;;;;;;5124324;27;20486;-76
2021/12/20 11:42:17;;;;;;;16.48;4.25;;;5.90;99.90;;;;;;5126262;27;20785;-76
2021/12/20 11:44:47;;;;;;;13.13;3.05;;;6.00;99.90;;;;;;5101884;27;20520;-76
2021/12/20 11:47:23;;;;;;;17.40;3.30;;;6.10;99.90;;;;;;5102228;27;20111;-77
2021/12/20 11:49:59;;;;;;;11.30;3.63;;;6.20;99.90;;;;;;5108228;27;20841;-76
2021/12/20 11:52:31;;;;;;;17.23;3.65;;;6.30;99.90;;;;;;5104696;27;20055;-76
2021/12/20 11:54:56;;;;;;;19.88;4.50;;;6.40;99.90;;;;;;5103964;27;20587;-76
2021/12/20 11:57:28;;;;;;;19.73;5.85;;;6.50;99.90;;;;;;5107457;27;20050;-76
2021/12/20 11:59:56;;;;;;;15.68;3.92;;;6.60;99.90;;;;;;5109973;27;20042;-76
2021/12/20 12:02:28;;;;;;;20.67;4.15;;;6.60;99.90;;;;;;5109065;27;20050;-76
2021/12/20 12:04:59;;;;;;;17.15;3.35;;;6.70;99.90;;;;;;5121235;27;20100;-76
2021/12/20 12:07:28;;;;;;;15.40;4.05;;;7.10;99.90;;;;;;5109990;27;20402;-76
2021/12/20 12:10:04;;;;;;;15.00;3.60;;;6.90;99.90;;;;;;5111550;27;20039;-76
2021/12/20 12:12:31;;;;;;;15.18;4.00;;;6.90;99.90;;;;;;5106011;27;20046;-76
2021/12/20 12:15:05;;;;;;;16.90;4.60;;;7.00;99.90;;;;;;5101236;27;20289;-77
2021/12/20 12:17:50;;;;;;;;;;;7.00;99.90;;;;;;5117369;27;20042;-78
2021/12/20 12:20:37;;;;;;;17.08;4.03;;;7.10;99.90;;;;;;5109968;27;20771;-75
2021/12/20 12:23:20;;;;;;;10.82;3.25;;;7.10;99.90;;;;;;5111805;27;20042;-75
2021/12/20 12:25:53;;;;;;;16.73;3.67;;;7.10;99.90;;;;;;5104673;27;20118;-74
2021/12/20 12:28:25;;;;;;;14.40;3.70;;;7.20;99.90;;;;;;5108940;27;20047;-76
2021/12/20 12:30:56;;;;;;;17.05;3.50;;;7.20;99.90;;;;;;5111711;27;20047;-76
2021/12/20 12:33:27;;;;;;;15.45;3.90;;;7.20;99.90;;;;;;5130505;27;20829;-76
2021/12/20 12:35:55;;;;;;;15.15;3.58;;;7.20;99.90;;;;;;5104193;27;20092;-76
2021/12/20 12:38:25;;;;;;;9.52;2.47;;;7.20;99.90;;;;;;5115079;27;20047;-77
2021/12/20 12:41:21;;;;;;;12.32;2.42;;;7.20;99.90;;;;;;5109868;27;20573;-77
2021/12/20 12:43:56;;;;;;;13.07;2.75;;;7.20;99.90;;;;;;5105126;27;20087;-76
2021/12/20 12:47:00;;;;;;;11.43;2.63;;;7.20;99.90;;;;;;5103801;27;20402;-76
2021/12/20 12:49:27;;;;;;;10.32;2.22;;;7.10;99.90;;;;;;5113901;27;20482;-75
2021/12/20 12:52:08;;;;;;;15.95;3.53;;;7.00;99.90;;;;;;5107039;27;20051;-76
2021/12/20 12:54:42;;;;;;;13.82;3.15;;;7.00;99.90;;;;;;5107328;27;20569;-76
2021/12/20 12:57:10;;;;;;;12.60;3.50;;;7.00;99.90;;;;;;5108794;27;20155;-76
2021/12/20 12:59:59;;;;;;;16.23;3.78;;;6.90;99.90;;;;;;5104583;27;20043;-75
2021/12/20 13:02:28;;;;;;;13.93;4.22;;;6.90;99.90;;;;;;5111806;27;20107;-75
2021/12/20 13:04:59;;;;;;;15.68;4.18;;;6.80;99.90;;;;;;5100970;27;20043;-78
2021/12/20 13:07:37;;;;;;;13.70;4.40;;;6.70;99.90;;;;;;5113327;27;20046;-74
2021/12/20 13:10:11;;;;;;;14.20;4.07;;;6.70;99.90;;;;;;5107285;27;20789;-75